• Join FlightAware (Why Join?)
  • Login
  • US Flag 
10:04PM EDT


 

Airport Tracker/Info


-or-


 

Live Flight TrackerFlight Track Log ✈ ASQ5874 ✈ 01-Dec-2013 ✈ KORD - KBNA

Flight Track Log - Related Links

Times and Time Zones

All times are in EST time to prevent confusion due to time zone crossing. See the ASQ5874 flight status page for this flight to view local times or setup timezone preferences in your user account.

Time Position Orientation Groundspeed Altitude Reporting Facility
EST Latitude Longitude Course Direction KTS MPH feet Rate Location/Type
02:46PM 41.9500 -87.9667 176° South 188 216 2,900  Level Chicago TRACON
02:47PM 41.9167 -88.0167 228° Southwest 247 284 4,900 2,340 Climbing Chicago TRACON
02:48PM 41.8542 -88.0067 173° South 273 314 7,100 2,760 Climbing Chicago Center
02:49PM 41.5532 -87.8106 180° South  Level Estimated
02:49PM 41.7781 -87.9828 167° South 279 321 9,900  Level Chicago Center
02:50PM 41.4467 -87.7866 180° South  Level Estimated
02:50PM 41.6964 -87.9603 168° South 297 342 12,200  Level Chicago Center
02:51PM 41.3397 -87.8068 188° South  Level FlightAware Approximate
02:51PM 41.6103 -87.9350 168° South 313 360 14,500  Level Chicago Center
02:52PM 41.2413 -87.7839 176° South  Level Estimated
02:52PM 41.5211 -87.9089 168° South 324 373 16,000  Level Chicago Center
02:53PM 41.4164 -87.8811 169° South 371 427 16,800 960 Climbing Chicago Center
02:54PM 41.3067 -87.8889 183° South 388 447 18,000 1,140 Climbing Chicago Center
02:55PM 41.1703 -87.8917 181° South 403 464 19,200 1,020 Climbing Chicago Center
02:56PM 41.0528 -87.8872 178° South 419 482 20,200 960 Climbing Chicago Center
02:57PM 40.9331 -87.8825 178° South 428 493 21,300 1,020 Climbing Chicago Center
02:58PM 40.8142 -87.8797 179° South 427 491 22,400 1,020 Climbing Chicago Center
02:59PM 40.6939 -87.8767 179° South 431 496 23,500 1,080 Climbing Chicago Center
03:00PM 40.5497 -87.8703 178° South 432 497 24,700 960 Climbing Chicago Center
03:01PM 40.4289 -87.8667 179° South 435 501 25,500 720 Climbing Chicago Center
03:03PM 40.3069 -87.8622 178° South 437 503 26,200 660 Climbing Chicago Center
03:04PM 40.1850 -87.8567 178° South 440 506 26,900 660 Climbing Chicago Center
03:05PM 40.0597 -87.8531 179° South 442 509 27,600 660 Climbing Indianapolis Center
03:06PM 39.9378 -87.8481 178° South 442 509 28,300 540 Climbing Indianapolis Center
03:07PM 39.8158 -87.8419 178° South 441 507 28,800 300 Climbing Indianapolis Center
03:08PM 39.6922 -87.8381 179° South 445 512 29,000 60 Climbing Indianapolis Center
03:09PM 39.5394 -87.8314 178° South 457 526 29,000  Level Indianapolis Center
03:10PM 39.4122 -87.8264 178° South 460 529 29,000  Level Indianapolis Center
03:11PM 39.2936 -87.8194 177° South 460 529 29,000  Level Indianapolis Center
03:12PM 39.1433 -87.8142 178° South 449 517 29,000  Level Indianapolis Center
03:13PM 39.0233 -87.8086 178° South 436 502 29,000  Level Indianapolis Center
03:14PM 38.9019 -87.8025 178° South 434 499 29,000  Level Indianapolis Center
03:15PM 38.7803 -87.7981 178° South 437 503 29,000  Level Indianapolis Center
03:16PM 38.6575 -87.7936 178° South 441 507 29,000 -540 Level Indianapolis Center
03:17PM 38.5344 -87.7886 178° South 442 509 27,900 -1,680 Descending Indianapolis Center
03:18PM 38.3872 -87.7819 178° South 442 509 25,600 -1,740 Descending Indianapolis Center
03:19PM 38.2681 -87.7769 178° South 433 498 24,400 -1,080 Descending Indianapolis Center
03:20PM 38.1550 -87.7722 178° South 412 474 23,400 -720 Descending Indianapolis Center
03:21PM 38.0436 -87.7667 178° South 403 464 23,000 -240 Descending Indianapolis Center
03:22PM 37.9333 -87.7586 177° South 400 460 23,000  Level Indianapolis Center
03:23PM 37.8358 -87.6803 148° Southeast 416 479 23,000  Level Indianapolis Center
03:24PM 37.7339 -87.5881 144° Southeast 416 479 23,000  Level Indianapolis Center
03:25PM 37.6383 -87.5033 145° Southeast 415 478 23,000  Level Indianapolis Center
03:26PM 37.5264 -87.4042 145° Southeast 417 480 23,000  Level Indianapolis Center
03:27PM 37.4294 -87.3183 145° Southeast 422 486 23,000  Level Indianapolis Center
03:28PM 37.3283 -87.2489 151° Southeast 415 478 23,000  Level Indianapolis Center
03:29PM 37.2164 -87.2156 167° South 410 472 23,000 -780 Level Indianapolis Center
03:30PM 37.1031 -87.1839 167° South 412 474 21,500 -1,680 Descending Indianapolis Center
03:31PM 37.0250 -87.1589 166° South 419 482 20,100 -2,220 Descending Memphis Center
03:31PM 37.0086 -87.1556 171° South 428 493 19,800 -3,240 Descending Memphis Center
03:32PM 36.9419 -87.1361 167° South 436 502 18,400 -2,520 Descending Memphis Center
03:32PM 36.8869 -87.1194 166° South 430 495 17,300 -2,220 Descending Memphis Center
03:33PM 36.8317 -87.1031 167° South 423 487 16,200 -2,040 Descending Memphis Center
03:33PM 36.7786 -87.0758 158° South 409 471 15,200 -2,220 Descending Memphis Center
03:34PM 36.6778 -87.0133 154° Southeast 401 461 12,800 -2,220 Descending Memphis Center
03:35PM 36.5817 -86.9542 154° Southeast 389 448 10,600 -1,620 Descending Memphis Center
03:36PM 36.5108 -86.8950 146° Southeast 321 369 9,500 -1,800 Descending Memphis Center
03:37PM 36.4722 -86.8028 117° Southeast 297 342 6,900 -2,100 Descending Memphis Center
03:38PM 36.4144 -86.7458 142° Southeast 273 314 5,200 -1,800 Descending Memphis Center
03:39PM 36.3422 -86.7183 163° South 264 304 3,300 -1,560 Descending Memphis Center
03:40PM 36.2722 -86.6908 162° South 260 299 2,000 -780 Descending Memphis Center
03:41PM 36.2064 -86.6681 164° South 251 289 1,800 -540 Descending Memphis Center
03:43PM 36.1561 -86.6708 183° South 174 200 900 -540 Descending Memphis Center
03:44PM 36.1272 -86.6817 197° South 156 180 700 -240 Descending Memphis Center